Kalamazoo, Michigan
Current Conditions -  °F | °C
As of 10:53 AM on Wednesday 22 Oct 2014 (Local Time) from KAZO Reporting Station
Overcast Overcast  
Wind Chill: 38°   Ceiling: 1500
Heat Index: 42°   Visibility: 10mi
Dew Point: 36°   Wind: 6mph
Humidity: 79%   Direction: NA
Pressure: 30.38"   Gusts: NA
Location:  42.29°N, 85.6°W
Report Text: KAZO 221453Z VRB05KT 10SM OVC015 06/02 A3038 RMK AO2 SLP297 I3000 T00560022 53017
Loading
Personal Weather Stations






























Interactive Weather Map New forecast layout! Learn more

10-Day Weather Forecast

Advertisements
Track Severe Weather on mobile